Macareux — 2AZS7 — position and weather

sailwx.info

Track history (hours):
 
Tides and Currents Weather Stations Pressure Air Temp Water Temp Dewpoint Dewpoint Depression Visibility Wind Speed Wind Dir Waves Ship Positions

Macareux

Last reported at 2017-Nov-27 17:07 UTC. Time now 2017-Dec-13 16:58 UTC.
Position N 16°32' W 061°50'.
Warning: this ship's position is 15 days out of date.

Length 13 m.

Type: Sailing vessel. MMSI: 235064273.

Date/timePositionNaut miles runAvg speedWind from/ knotsBaromVisibWave heightAir tempDewpointWater temp
2017-Nov-27 17:07N 16°32' W 061°50'1 6.5
2017-Nov-27 16:59N 16°32' W 061°51'3 5.4
2017-Nov-27 16:27N 16°35' W 061°51'3 5.5
2017-Nov-27 15:59N 16°38' W 061°51'2 5.1
2017-Nov-27 15:30N 16°40' W 061°52'3 6.2
2017-Nov-27 14:59N 16°43' W 061°52'3 7.2
2017-Nov-27 14:30N 16°47' W 061°53'3 6.9
2017-Nov-27 14:00N 16°50' W 061°53'3 6.8
2017-Nov-27 13:30N 16°54' W 061°54'3 6.7
2017-Nov-27 13:00N 16°57' W 061°55'2 4.1
2017-Nov-27 12:30N 16°59' W 061°55'4 5.6
2017-Nov-27 11:46N 17°03' W 061°55'2 6.2
2017-Nov-27 11:30N 17°05' W 061°54'1 0.0
2017-Nov-26 18:52N 17°05' W 061°54'0 0.0
2017-Nov-26 18:28N 17°05' W 061°54'0 0.0
2017-Nov-26 17:58N 17°05' W 061°54'2 3.9
2017-Nov-26 17:27N 17°03' W 061°55'0 0.7
2017-Nov-26 16:59N 17°03' W 061°55'2 3.9
2017-Nov-26 16:30N 17°04' W 061°53'0 0.1
2017-Nov-26 15:32N 17°04' W 061°53'  
2017-Nov-17 18:07N 17°01' W 061°47'0 0.0
2017-Nov-17 17:58N 17°01' W 061°47'0 0.0
2017-Nov-17 17:28N 17°01' W 061°47'  
Track history (hours):
 
Tides and Currents Weather Stations Pressure Air Temp Water Temp Dewpoint Dewpoint Depression Visibility Wind Speed Wind Dir Waves Ship Positions

Macareux

Last reported at 2017-Nov-27 17:07 UTC. Time now 2017-Dec-13 16:58 UTC.
Position N 16°32' W 061°50'.
Warning: this ship's position is 15 days out of date.

Length 13 m.

Type: Sailing vessel. MMSI: 235064273.

Date/timePositionNaut miles runAvg speedWind from/ knotsBaromVisibWave heightAir tempDewpointWater temp
2017-Nov-27 17:07N 16°32' W 061°50'1 6.5
2017-Nov-27 16:59N 16°32' W 061°51'3 5.4
2017-Nov-27 16:27N 16°35' W 061°51'3 5.5
2017-Nov-27 15:59N 16°38' W 061°51'2 5.1
2017-Nov-27 15:30N 16°40' W 061°52'3 6.2
2017-Nov-27 14:59N 16°43' W 061°52'3 7.2
2017-Nov-27 14:30N 16°47' W 061°53'3 6.9
2017-Nov-27 14:00N 16°50' W 061°53'3 6.8
2017-Nov-27 13:30N 16°54' W 061°54'3 6.7
2017-Nov-27 13:00N 16°57' W 061°55'2 4.1
2017-Nov-27 12:30N 16°59' W 061°55'4 5.6
2017-Nov-27 11:46N 17°03' W 061°55'2 6.2
2017-Nov-27 11:30N 17°05' W 061°54'1 0.0
2017-Nov-26 18:52N 17°05' W 061°54'0 0.0
2017-Nov-26 18:28N 17°05' W 061°54'0 0.0
2017-Nov-26 17:58N 17°05' W 061°54'2 3.9
2017-Nov-26 17:27N 17°03' W 061°55'0 0.7
2017-Nov-26 16:59N 17°03' W 061°55'2 3.9
2017-Nov-26 16:30N 17°04' W 061°53'0 0.1
2017-Nov-26 15:32N 17°04' W 061°53'  
2017-Nov-17 18:07N 17°01' W 061°47'0 0.0
2017-Nov-17 17:58N 17°01' W 061°47'0 0.0
2017-Nov-17 17:28N 17°01' W 061°47'  

Dump ship's entire track history